Fort Harrison, MT (59636)

5:59 AM MST on February 13, 2016 (GMT -0700)
Bell - Lincoln Street - Westside | | Change Station
CLOSE
Current Station
Personal Weather Station
Location: Helena, MT
Elevation: 3960 ft
Nearby Weather Stations

Elev 3960 ft 46.61 °N, 112.05 °W | Updated 11 minutes ago

Mostly Cloudy
Mostly Cloudy
37.4 °F
Feels Like 37 °F
N
2.2
Wind Variable Wind from SSE

Today
High -- | Low -- °F
--% Chance of Precip.
Yesterday
High -- | Low -- °F
Precip. -- in
Pressure 30.04 in
Visibility 10.0 miles
Clouds Few 3900 ft
Scattered Clouds 9500 ft
Windchill 37 °F
Dew Point 35 °F
Humidity 90%
Rainfall 0.09 in
Snow Depth Not available.
7:35 AM 5:49 PM
Waxing Crescent, 30% visible
METAR KHLN 131253Z 23007KT 10SM FEW039 SCT095 04/01 A2997 RMK AO2 RAE07 SLP172 P0000 T00440011
Pressure 30.04 in
Visibility 10.0 miles
Clouds Few 3900 ft
Scattered Clouds 9500 ft
Windchill 37 °F
Dew Point 35 °F
Humidity 90%
Rainfall 0.09 in
Snow Depth Not available.
7:35 AM 5:49 PM
Waxing Crescent, 30% visible
METAR KHLN 131253Z 23007KT 10SM FEW039 SCT095 04/01 A2997 RMK AO2 RAE07 SLP172 P0000 T00440011

10-Day Weather Forecast

Almanac

Astronomy

Feb. 13, 2016 Rise Set
Actual Time
Civil Twilight
Nautical Twilight
Astronomical Twilight
Moon
Length of Visible Light
Length of Day
Tomorrow will be .
, % of the Moon is Illuminated

Today's Extremes

State Highs State Lows

Community

WunderPhotos

Upload Photos

1,892,543 photos uploaded!

WunderBlog® & News

Nearby

Air Quality

  Air Quality AQ Index Pollutant
Not available.

Snow Depth

Station Depth Elevation

Earthquake Activity

City Distance Mag. Time & Date
Minimum magnitude displayed is 2.5.

Coastal Water Temperatures

Place Temperature

Stations

Nearby Weather Stations

Station Location Temp. Windchill Dew Point Humidity Wind Precip. Elev Updated Type
                   

Watches & Warnings

There are currently no watches in effect.